Terminal Aerodrome Forecast
Issued by NWS

Home | Current Version | Previous Version | Text Only | Print | Product List | Glossary On
Versions: 1 2 3 4 5 6 7 8 9 10 11 12 13 14 15 16 17 18 19 20 21 22 23
620
FTUS43 KMQT 301137
TAFCMX
TAF
KCMX 301137Z 3012/0112 06005KT 3SM BR SCT010
     FM301400 08006KT P6SM SCT020
     FM301600 08008KT P6SM SCT060=

USA.gov is the U.S. government's official web portal to all federal, state and local government web resources and services.